sensor_id;sensor_type;location;lat;lon;timestamp;pressure;altitude;pressure_sealevel;temperature;humidity
19783;BME280;10051;40.294;-3.754;2023-10-19T00:00:40;93161.16;;;17.31;90.49
19783;BME280;10051;40.294;-3.754;2023-10-19T00:03:10;93180.88;;;17.30;91.31
19783;BME280;10051;40.294;-3.754;2023-10-19T00:05:37;93176.00;;;17.00;92.27
19783;BME280;10051;40.294;-3.754;2023-10-19T00:08:04;93227.75;;;17.38;91.85
19783;BME280;10051;40.294;-3.754;2023-10-19T00:10:41;93250.53;;;17.23;93.15
19783;BME280;10051;40.294;-3.754;2023-10-19T00:13:09;93233.91;;;17.10;93.14
19783;BME280;10051;40.294;-3.754;2023-10-19T00:15:41;93242.72;;;17.14;93.29
19783;BME280;10051;40.294;-3.754;2023-10-19T00:18:27;93231.25;;;17.10;93.17
19783;BME280;10051;40.294;-3.754;2023-10-19T00:20:55;93247.28;;;17.14;93.67
19783;BME280;10051;40.294;-3.754;2023-10-19T00:23:55;93243.94;;;17.17;93.42
19783;BME280;10051;40.294;-3.754;2023-10-19T00:26:29;93227.47;;;17.11;93.91
19783;BME280;10051;40.294;-3.754;2023-10-19T00:28:56;93196.97;;;17.05;94.01
19783;BME280;10051;40.294;-3.754;2023-10-19T00:31:25;93186.97;;;17.14;94.61
19783;BME280;10051;40.294;-3.754;2023-10-19T00:33:53;93191.59;;;17.17;94.52
19783;BME280;10051;40.294;-3.754;2023-10-19T00:36:20;93196.41;;;17.12;95.67
19783;BME280;10051;40.294;-3.754;2023-10-19T00:38:47;93196.47;;;17.15;96.15
19783;BME280;10051;40.294;-3.754;2023-10-19T00:41:16;93200.25;;;17.14;96.20
19783;BME280;10051;40.294;-3.754;2023-10-19T00:43:55;93189.44;;;17.07;96.14
19783;BME280;10051;40.294;-3.754;2023-10-19T00:46:36;93120.47;;;16.62;96.88
19783;BME280;10051;40.294;-3.754;2023-10-19T00:49:08;93192.00;;;17.19;96.81
19783;BME280;10051;40.294;-3.754;2023-10-19T00:51:55;93185.00;;;17.11;97.34
19783;BME280;10051;40.294;-3.754;2023-10-19T00:54:32;93167.19;;;17.12;96.29
19783;BME280;10051;40.294;-3.754;2023-10-19T00:57:02;93173.75;;;17.34;96.18
19783;BME280;10051;40.294;-3.754;2023-10-19T00:59:37;93144.97;;;17.04;96.00
19783;BME280;10051;40.294;-3.754;2023-10-19T01:02:18;93147.13;;;17.14;95.22
19783;BME280;10051;40.294;-3.754;2023-10-19T01:04:54;93161.34;;;17.22;95.72
19783;BME280;10051;40.294;-3.754;2023-10-19T01:07:32;93132.31;;;17.13;96.46
19783;BME280;10051;40.294;-3.754;2023-10-19T01:10:04;93116.78;;;17.15;95.84
19783;BME280;10051;40.294;-3.754;2023-10-19T01:12:32;93123.66;;;17.16;95.63
19783;BME280;10051;40.294;-3.754;2023-10-19T01:17:58;93153.38;;;17.22;95.81
19783;BME280;10051;40.294;-3.754;2023-10-19T01:20:27;93149.53;;;17.19;96.33
19783;BME280;10051;40.294;-3.754;2023-10-19T01:22:57;93132.63;;;17.28;95.60
19783;BME280;10051;40.294;-3.754;2023-10-19T01:28:16;93108.41;;;17.13;95.68
19783;BME280;10051;40.294;-3.754;2023-10-19T01:30:45;93088.69;;;17.14;95.37
19783;BME280;10051;40.294;-3.754;2023-10-19T01:33:11;93121.59;;;17.26;94.34
19783;BME280;10051;40.294;-3.754;2023-10-19T01:35:41;93112.28;;;17.16;94.99
19783;BME280;10051;40.294;-3.754;2023-10-19T01:38:26;93098.88;;;17.12;94.36
19783;BME280;10051;40.294;-3.754;2023-10-19T01:40:56;93093.50;;;17.08;94.23
19783;BME280;10051;40.294;-3.754;2023-10-19T01:43:27;93108.91;;;17.19;93.44
19783;BME280;10051;40.294;-3.754;2023-10-19T01:45:57;93098.19;;;17.15;93.90
19783;BME280;10051;40.294;-3.754;2023-10-19T01:48:23;93044.22;;;16.75;93.47
19783;BME280;10051;40.294;-3.754;2023-10-19T01:51:00;93076.22;;;16.99;94.15
19783;BME280;10051;40.294;-3.754;2023-10-19T01:53:29;93036.50;;;16.70;94.27
19783;BME280;10051;40.294;-3.754;2023-10-19T01:55:55;93066.00;;;16.85;94.48
19783;BME280;10051;40.294;-3.754;2023-10-19T01:58:24;93064.38;;;17.12;92.06
19783;BME280;10051;40.294;-3.754;2023-10-19T02:00:53;93050.75;;;17.14;90.88
19783;BME280;10051;40.294;-3.754;2023-10-19T02:03:26;93020.28;;;16.91;91.24
19783;BME280;10051;40.294;-3.754;2023-10-19T02:06:00;93023.63;;;16.88;92.22
19783;BME280;10051;40.294;-3.754;2023-10-19T02:08:31;93030.31;;;16.98;92.04
19783;BME280;10051;40.294;-3.754;2023-10-19T02:10:57;93052.13;;;17.07;92.91
19783;BME280;10051;40.294;-3.754;2023-10-19T02:13:23;92990.41;;;16.78;93.20
19783;BME280;10051;40.294;-3.754;2023-10-19T02:15:48;93039.34;;;17.13;93.51
19783;BME280;10051;40.294;-3.754;2023-10-19T02:18:15;92994.00;;;16.86;95.20
19783;BME280;10051;40.294;-3.754;2023-10-19T02:20:42;92994.16;;;16.93;95.01
19783;BME280;10051;40.294;-3.754;2023-10-19T02:23:13;93008.56;;;16.92;95.63
19783;BME280;10051;40.294;-3.754;2023-10-19T02:25:39;93000.47;;;17.05;94.05
19783;BME280;10051;40.294;-3.754;2023-10-19T02:28:06;92943.94;;;16.69;95.07
19783;BME280;10051;40.294;-3.754;2023-10-19T02:30:34;92975.91;;;16.72;96.47
19783;BME280;10051;40.294;-3.754;2023-10-19T02:33:01;93008.22;;;16.78;98.53
19783;BME280;10051;40.294;-3.754;2023-10-19T02:35:29;92984.63;;;16.73;99.45
19783;BME280;10051;40.294;-3.754;2023-10-19T02:37:55;92974.63;;;16.66;99.85
19783;BME280;10051;40.294;-3.754;2023-10-19T02:40:21;92956.63;;;16.59;100.00
19783;BME280;10051;40.294;-3.754;2023-10-19T02:42:49;92907.59;;;16.17;100.00
19783;BME280;10051;40.294;-3.754;2023-10-19T02:45:19;92956.66;;;16.43;100.00
19783;BME280;10051;40.294;-3.754;2023-10-19T02:47:45;92950.59;;;16.43;100.00
19783;BME280;10051;40.294;-3.754;2023-10-19T02:50:12;92917.91;;;16.39;100.00
19783;BME280;10051;40.294;-3.754;2023-10-19T02:52:48;92917.22;;;16.42;100.00
19783;BME280;10051;40.294;-3.754;2023-10-19T02:55:14;92925.84;;;16.55;100.00
19783;BME280;10051;40.294;-3.754;2023-10-19T02:57:43;92886.16;;;16.42;100.00
19783;BME280;10051;40.294;-3.754;2023-10-19T03:00:12;92851.94;;;16.01;100.00
19783;BME280;10051;40.294;-3.754;2023-10-19T03:02:48;92911.25;;;16.45;100.00
19783;BME280;10051;40.294;-3.754;2023-10-19T03:05:13;92860.56;;;16.14;100.00
19783;BME280;10051;40.294;-3.754;2023-10-19T03:07:43;92838.34;;;15.71;100.00
19783;BME280;10051;40.294;-3.754;2023-10-19T03:10:10;92911.75;;;16.34;100.00
19783;BME280;10051;40.294;-3.754;2023-10-19T03:12:50;92802.38;;;15.54;100.00
19783;BME280;10051;40.294;-3.754;2023-10-19T03:15:16;92857.78;;;15.91;100.00
19783;BME280;10051;40.294;-3.754;2023-10-19T03:17:43;92831.16;;;15.71;100.00
19783;BME280;10051;40.294;-3.754;2023-10-19T03:20:11;92908.63;;;16.13;100.00
19783;BME280;10051;40.294;-3.754;2023-10-19T03:22:37;92916.06;;;16.23;100.00
19783;BME280;10051;40.294;-3.754;2023-10-19T03:25:05;92916.50;;;16.09;100.00
19783;BME280;10051;40.294;-3.754;2023-10-19T03:27:57;92884.34;;;15.95;100.00
19783;BME280;10051;40.294;-3.754;2023-10-19T03:30:31;92907.50;;;16.14;100.00
19783;BME280;10051;40.294;-3.754;2023-10-19T03:32:57;92837.50;;;15.67;100.00
19783;BME280;10051;40.294;-3.754;2023-10-19T03:35:24;92813.56;;;15.47;100.00
19783;BME280;10051;40.294;-3.754;2023-10-19T03:37:50;92850.50;;;15.56;100.00
19783;BME280;10051;40.294;-3.754;2023-10-19T03:40:17;92864.06;;;15.70;100.00
19783;BME280;10051;40.294;-3.754;2023-10-19T03:42:52;92847.34;;;15.66;100.00
19783;BME280;10051;40.294;-3.754;2023-10-19T03:45:20;92789.13;;;15.22;100.00
19783;BME280;10051;40.294;-3.754;2023-10-19T03:47:49;92873.66;;;15.91;100.00
19783;BME280;10051;40.294;-3.754;2023-10-19T03:50:16;92864.75;;;15.83;100.00
19783;BME280;10051;40.294;-3.754;2023-10-19T03:52:46;92829.97;;;15.69;100.00
19783;BME280;10051;40.294;-3.754;2023-10-19T03:55:11;92756.09;;;15.31;100.00
19783;BME280;10051;40.294;-3.754;2023-10-19T03:57:40;92826.53;;;15.68;100.00
19783;BME280;10051;40.294;-3.754;2023-10-19T04:00:12;92814.50;;;15.87;100.00
19783;BME280;10051;40.294;-3.754;2023-10-19T04:02:44;92764.09;;;15.51;100.00
19783;BME280;10051;40.294;-3.754;2023-10-19T04:05:10;92840.66;;;16.04;100.00
19783;BME280;10051;40.294;-3.754;2023-10-19T04:07:40;92770.81;;;15.81;100.00
19783;BME280;10051;40.294;-3.754;2023-10-19T04:10:07;92786.94;;;16.08;100.00
19783;BME280;10051;40.294;-3.754;2023-10-19T04:12:34;92804.25;;;16.21;100.00
19783;BME280;10051;40.294;-3.754;2023-10-19T04:15:05;92801.53;;;16.17;100.00
19783;BME280;10051;40.294;-3.754;2023-10-19T04:17:45;92804.63;;;16.19;100.00
19783;BME280;10051;40.294;-3.754;2023-10-19T04:20:11;92800.50;;;16.22;100.00
19783;BME280;10051;40.294;-3.754;2023-10-19T04:22:44;92801.75;;;16.09;100.00
19783;BME280;10051;40.294;-3.754;2023-10-19T04:25:09;92816.56;;;16.29;100.00
19783;BME280;10051;40.294;-3.754;2023-10-19T04:27:41;92765.69;;;15.88;100.00
19783;BME280;10051;40.294;-3.754;2023-10-19T04:30:16;92746.25;;;15.84;100.00
19783;BME280;10051;40.294;-3.754;2023-10-19T04:32:44;92786.66;;;16.13;100.00
19783;BME280;10051;40.294;-3.754;2023-10-19T04:35:11;92774.91;;;15.94;100.00
19783;BME280;10051;40.294;-3.754;2023-10-19T04:37:39;92796.09;;;16.10;100.00
19783;BME280;10051;40.294;-3.754;2023-10-19T04:40:09;92748.91;;;15.84;100.00
19783;BME280;10051;40.294;-3.754;2023-10-19T04:42:34;92774.13;;;16.10;100.00
19783;BME280;10051;40.294;-3.754;2023-10-19T04:45:02;92759.00;;;15.94;100.00
19783;BME280;10051;40.294;-3.754;2023-10-19T04:47:28;92749.59;;;15.97;100.00
19783;BME280;10051;40.294;-3.754;2023-10-19T04:49:53;92729.44;;;15.92;100.00
19783;BME280;10051;40.294;-3.754;2023-10-19T04:52:19;92761.69;;;16.14;100.00
19783;BME280;10051;40.294;-3.754;2023-10-19T04:54:44;92774.94;;;16.14;100.00
19783;BME280;10051;40.294;-3.754;2023-10-19T04:57:10;92760.28;;;16.00;100.00
19783;BME280;10051;40.294;-3.754;2023-10-19T04:59:36;92789.31;;;16.13;100.00
19783;BME280;10051;40.294;-3.754;2023-10-19T05:02:01;92765.88;;;16.15;100.00
19783;BME280;10051;40.294;-3.754;2023-10-19T05:04:28;92749.84;;;16.08;100.00
19783;BME280;10051;40.294;-3.754;2023-10-19T05:06:55;92770.63;;;16.05;100.00
19783;BME280;10051;40.294;-3.754;2023-10-19T05:09:20;92727.28;;;15.82;100.00
19783;BME280;10051;40.294;-3.754;2023-10-19T05:11:46;92704.56;;;15.81;100.00
19783;BME280;10051;40.294;-3.754;2023-10-19T05:14:15;92766.56;;;16.12;100.00
19783;BME280;10051;40.294;-3.754;2023-10-19T05:16:40;92723.44;;;15.95;100.00
19783;BME280;10051;40.294;-3.754;2023-10-19T05:19:06;92726.78;;;16.12;100.00
19783;BME280;10051;40.294;-3.754;2023-10-19T05:21:32;92732.38;;;16.07;100.00
19783;BME280;10051;40.294;-3.754;2023-10-19T05:23:59;92700.63;;;15.74;100.00
19783;BME280;10051;40.294;-3.754;2023-10-19T05:26:26;92701.88;;;15.97;100.00
19783;BME280;10051;40.294;-3.754;2023-10-19T05:28:52;92675.81;;;15.83;100.00
19783;BME280;10051;40.294;-3.754;2023-10-19T05:31:19;92724.13;;;16.12;100.00
19783;BME280;10051;40.294;-3.754;2023-10-19T05:33:45;92715.06;;;16.13;100.00
19783;BME280;10051;40.294;-3.754;2023-10-19T05:36:13;92707.25;;;16.20;100.00
19783;BME280;10051;40.294;-3.754;2023-10-19T05:38:40;92629.84;;;15.55;100.00
19783;BME280;10051;40.294;-3.754;2023-10-19T05:41:05;92603.44;;;15.59;100.00
19783;BME280;10051;40.294;-3.754;2023-10-19T05:43:33;92709.78;;;16.32;100.00
19783;BME280;10051;40.294;-3.754;2023-10-19T05:46:00;92708.53;;;16.26;100.00
19783;BME280;10051;40.294;-3.754;2023-10-19T05:48:26;92685.44;;;16.07;100.00
19783;BME280;10051;40.294;-3.754;2023-10-19T05:50:52;92716.19;;;16.31;100.00
19783;BME280;10051;40.294;-3.754;2023-10-19T05:53:17;92700.84;;;16.41;100.00
19783;BME280;10051;40.294;-3.754;2023-10-19T05:55:50;92680.22;;;16.11;100.00
19783;BME280;10051;40.294;-3.754;2023-10-19T05:58:16;92670.50;;;15.99;100.00
19783;BME280;10051;40.294;-3.754;2023-10-19T06:00:42;92640.13;;;15.76;100.00
19783;BME280;10051;40.294;-3.754;2023-10-19T06:03:07;92708.53;;;16.26;100.00
19783;BME280;10051;40.294;-3.754;2023-10-19T06:05:33;92742.38;;;16.53;100.00
19783;BME280;10051;40.294;-3.754;2023-10-19T06:07:59;92689.13;;;16.42;100.00
19783;BME280;10051;40.294;-3.754;2023-10-19T06:10:28;92753.31;;;16.71;100.00
19783;BME280;10051;40.294;-3.754;2023-10-19T06:12:53;92767.84;;;16.77;100.00
19783;BME280;10051;40.294;-3.754;2023-10-19T06:15:22;92761.97;;;16.68;100.00
19783;BME280;10051;40.294;-3.754;2023-10-19T06:17:50;92723.03;;;16.32;100.00
19783;BME280;10051;40.294;-3.754;2023-10-19T06:20:16;92771.31;;;16.61;100.00
19783;BME280;10051;40.294;-3.754;2023-10-19T06:22:56;92755.34;;;16.58;100.00
19783;BME280;10051;40.294;-3.754;2023-10-19T06:25:23;92752.22;;;16.52;100.00
19783;BME280;10051;40.294;-3.754;2023-10-19T06:27:50;92721.88;;;16.30;100.00
19783;BME280;10051;40.294;-3.754;2023-10-19T06:30:17;92683.84;;;16.02;100.00
19783;BME280;10051;40.294;-3.754;2023-10-19T06:32:54;92723.47;;;16.54;100.00
19783;BME280;10051;40.294;-3.754;2023-10-19T06:35:21;92684.88;;;16.17;100.00
19783;BME280;10051;40.294;-3.754;2023-10-19T06:37:47;92637.19;;;15.82;100.00
19783;BME280;10051;40.294;-3.754;2023-10-19T06:40:14;92623.25;;;15.85;100.00
19783;BME280;10051;40.294;-3.754;2023-10-19T06:42:44;92725.13;;;16.43;100.00
19783;BME280;10051;40.294;-3.754;2023-10-19T06:45:10;92680.41;;;16.22;100.00
19783;BME280;10051;40.294;-3.754;2023-10-19T06:47:40;92719.56;;;16.48;100.00
19783;BME280;10051;40.294;-3.754;2023-10-19T06:50:06;92680.31;;;16.18;100.00
19783;BME280;10051;40.294;-3.754;2023-10-19T06:52:39;92666.97;;;16.11;100.00
19783;BME280;10051;40.294;-3.754;2023-10-19T06:55:06;92693.31;;;16.43;100.00
19783;BME280;10051;40.294;-3.754;2023-10-19T06:57:41;92656.81;;;16.16;100.00
19783;BME280;10051;40.294;-3.754;2023-10-19T07:00:13;92657.06;;;16.08;100.00
19783;BME280;10051;40.294;-3.754;2023-10-19T07:02:41;92692.47;;;16.39;100.00
19783;BME280;10051;40.294;-3.754;2023-10-19T07:05:13;92678.56;;;16.45;100.00
19783;BME280;10051;40.294;-3.754;2023-10-19T07:07:44;92696.03;;;16.70;100.00
19783;BME280;10051;40.294;-3.754;2023-10-19T07:10:12;92672.56;;;16.48;100.00
19783;BME280;10051;40.294;-3.754;2023-10-19T07:12:47;92674.88;;;16.50;100.00
19783;BME280;10051;40.294;-3.754;2023-10-19T07:15:14;92698.97;;;16.64;100.00
19783;BME280;10051;40.294;-3.754;2023-10-19T07:17:43;92715.56;;;16.58;100.00
19783;BME280;10051;40.294;-3.754;2023-10-19T07:20:11;92685.81;;;16.48;100.00
19783;BME280;10051;40.294;-3.754;2023-10-19T07:23:03;92710.16;;;16.74;100.00
19783;BME280;10051;40.294;-3.754;2023-10-19T07:25:36;92674.47;;;16.48;100.00
19783;BME280;10051;40.294;-3.754;2023-10-19T07:28:12;92655.06;;;16.44;100.00
19783;BME280;10051;40.294;-3.754;2023-10-19T07:30:42;92666.16;;;16.73;100.00
19783;BME280;10051;40.294;-3.754;2023-10-19T07:33:11;92615.84;;;16.33;100.00
19783;BME280;10051;40.294;-3.754;2023-10-19T07:35:44;92629.41;;;16.52;100.00
19783;BME280;10051;40.294;-3.754;2023-10-19T07:38:13;92564.13;;;16.00;100.00
19783;BME280;10051;40.294;-3.754;2023-10-19T07:40:38;92609.47;;;16.38;100.00
19783;BME280;10051;40.294;-3.754;2023-10-19T07:43:04;92538.03;;;15.83;100.00
19783;BME280;10051;40.294;-3.754;2023-10-19T07:45:31;92612.19;;;16.42;100.00
19783;BME280;10051;40.294;-3.754;2023-10-19T07:47:57;92649.41;;;16.69;100.00
19783;BME280;10051;40.294;-3.754;2023-10-19T07:50:23;92598.81;;;16.34;100.00
19783;BME280;10051;40.294;-3.754;2023-10-19T07:52:51;92618.09;;;16.55;100.00
19783;BME280;10051;40.294;-3.754;2023-10-19T07:55:18;92614.69;;;16.54;100.00
19783;BME280;10051;40.294;-3.754;2023-10-19T07:57:44;92653.34;;;16.78;100.00
19783;BME280;10051;40.294;-3.754;2023-10-19T08:00:11;92623.53;;;16.62;100.00
19783;BME280;10051;40.294;-3.754;2023-10-19T08:02:40;92590.06;;;16.57;100.00
19783;BME280;10051;40.294;-3.754;2023-10-19T08:05:17;92578.75;;;16.60;100.00
19783;BME280;10051;40.294;-3.754;2023-10-19T08:07:46;92593.69;;;16.69;100.00
19783;BME280;10051;40.294;-3.754;2023-10-19T08:10:13;92593.22;;;16.63;100.00
19783;BME280;10051;40.294;-3.754;2023-10-19T08:12:40;92571.59;;;16.38;100.00
19783;BME280;10051;40.294;-3.754;2023-10-19T08:15:12;92603.66;;;16.52;100.00
19783;BME280;10051;40.294;-3.754;2023-10-19T08:17:39;92593.06;;;16.52;100.00
19783;BME280;10051;40.294;-3.754;2023-10-19T08:20:11;92611.72;;;16.59;100.00
19783;BME280;10051;40.294;-3.754;2023-10-19T08:23:03;92577.06;;;16.48;100.00
19783;BME280;10051;40.294;-3.754;2023-10-19T08:25:30;92573.38;;;16.53;100.00
19783;BME280;10051;40.294;-3.754;2023-10-19T08:27:58;92560.41;;;16.48;100.00
19783;BME280;10051;40.294;-3.754;2023-10-19T08:30:24;92515.13;;;16.14;100.00
19783;BME280;10051;40.294;-3.754;2023-10-19T08:32:51;92571.22;;;16.62;100.00
19783;BME280;10051;40.294;-3.754;2023-10-19T08:35:19;92529.31;;;16.48;100.00
19783;BME280;10051;40.294;-3.754;2023-10-19T08:37:55;92488.31;;;16.19;100.00
19783;BME280;10051;40.294;-3.754;2023-10-19T08:40:24;92543.94;;;16.62;100.00
19783;BME280;10051;40.294;-3.754;2023-10-19T08:42:52;92531.00;;;16.60;100.00
19783;BME280;10051;40.294;-3.754;2023-10-19T08:45:19;92517.56;;;16.73;100.00
19783;BME280;10051;40.294;-3.754;2023-10-19T08:47:53;92505.53;;;16.83;100.00
19783;BME280;10051;40.294;-3.754;2023-10-19T08:50:26;92465.94;;;16.43;100.00
19783;BME280;10051;40.294;-3.754;2023-10-19T08:52:55;92500.53;;;16.50;100.00
19783;BME280;10051;40.294;-3.754;2023-10-19T08:55:21;92471.50;;;16.34;100.00
19783;BME280;10051;40.294;-3.754;2023-10-19T08:57:49;92476.09;;;16.38;100.00
19783;BME280;10051;40.294;-3.754;2023-10-19T09:00:15;92464.50;;;16.46;100.00
19783;BME280;10051;40.294;-3.754;2023-10-19T09:02:47;92458.06;;;16.47;100.00
19783;BME280;10051;40.294;-3.754;2023-10-19T09:05:13;92455.00;;;16.45;100.00
19783;BME280;10051;40.294;-3.754;2023-10-19T09:07:50;92415.50;;;16.13;100.00
19783;BME280;10051;40.294;-3.754;2023-10-19T09:10:23;92448.09;;;16.40;100.00
19783;BME280;10051;40.294;-3.754;2023-10-19T09:13:04;92459.59;;;16.48;100.00
19783;BME280;10051;40.294;-3.754;2023-10-19T09:15:33;92433.47;;;16.23;100.00
19783;BME280;10051;40.294;-3.754;2023-10-19T09:18:12;92456.31;;;16.31;100.00
19783;BME280;10051;40.294;-3.754;2023-10-19T09:20:42;92420.28;;;16.03;100.00
19783;BME280;10051;40.294;-3.754;2023-10-19T09:23:08;92462.31;;;16.28;100.00
19783;BME280;10051;40.294;-3.754;2023-10-19T09:25:36;92442.19;;;16.24;100.00
19783;BME280;10051;40.294;-3.754;2023-10-19T09:28:01;92456.97;;;16.25;100.00
19783;BME280;10051;40.294;-3.754;2023-10-19T09:30:30;92457.03;;;16.28;100.00
19783;BME280;10051;40.294;-3.754;2023-10-19T09:32:58;92447.00;;;16.18;100.00
19783;BME280;10051;40.294;-3.754;2023-10-19T09:35:26;92424.94;;;16.10;100.00
19783;BME280;10051;40.294;-3.754;2023-10-19T09:37:54;92403.75;;;15.87;100.00
19783;BME280;10051;40.294;-3.754;2023-10-19T09:40:20;92425.59;;;16.03;100.00
19783;BME280;10051;40.294;-3.754;2023-10-19T09:42:47;92407.44;;;16.05;100.00
19783;BME280;10051;40.294;-3.754;2023-10-19T09:45:19;92392.25;;;16.29;100.00
19783;BME280;10051;40.294;-3.754;2023-10-19T09:47:50;92393.34;;;16.25;100.00
19783;BME280;10051;40.294;-3.754;2023-10-19T09:50:16;92345.97;;;15.96;100.00
19783;BME280;10051;40.294;-3.754;2023-10-19T09:52:42;92385.84;;;16.30;100.00
19783;BME280;10051;40.294;-3.754;2023-10-19T09:55:24;92372.16;;;16.28;100.00
19783;BME280;10051;40.294;-3.754;2023-10-19T09:58:23;92343.88;;;16.09;100.00
19783;BME280;10051;40.294;-3.754;2023-10-19T10:00:47;92331.00;;;16.08;100.00
19783;BME280;10051;40.294;-3.754;2023-10-19T10:06:07;92339.44;;;16.17;100.00
19783;BME280;10051;40.294;-3.754;2023-10-19T10:08:35;92260.94;;;15.82;100.00
19783;BME280;10051;40.294;-3.754;2023-10-19T10:11:18;92166.25;;;15.21;100.00
19783;BME280;10051;40.294;-3.754;2023-10-19T10:13:44;92328.47;;;16.18;100.00
19783;BME280;10051;40.294;-3.754;2023-10-19T10:16:13;92304.97;;;16.17;100.00
19783;BME280;10051;40.294;-3.754;2023-10-19T10:18:42;92100.03;;;14.91;100.00
19783;BME280;10051;40.294;-3.754;2023-10-19T10:26:30;92144.06;;;15.29;100.00
19783;BME280;10051;40.294;-3.754;2023-10-19T10:29:22;92143.34;;;15.32;100.00
19783;BME280;10051;40.294;-3.754;2023-10-19T10:31:49;92132.19;;;15.46;100.00
19783;BME280;10051;40.294;-3.754;2023-10-19T10:37:01;92113.66;;;15.46;100.00
19783;BME280;10051;40.294;-3.754;2023-10-19T10:39:31;92136.63;;;15.69;100.00
19783;BME280;10051;40.294;-3.754;2023-10-19T10:41:57;92147.94;;;15.93;100.00
19783;BME280;10051;40.294;-3.754;2023-10-19T10:44:39;92181.88;;;16.14;100.00
19783;BME280;10051;40.294;-3.754;2023-10-19T10:47:16;92174.25;;;16.13;100.00
19783;BME280;10051;40.294;-3.754;2023-10-19T10:52:31;92148.41;;;16.02;100.00
19783;BME280;10051;40.294;-3.754;2023-10-19T10:55:10;92200.31;;;16.38;100.00
19783;BME280;10051;40.294;-3.754;2023-10-19T10:57:43;92143.56;;;16.12;100.00
19783;BME280;10051;40.294;-3.754;2023-10-19T11:00:10;92136.03;;;16.14;100.00
19783;BME280;10051;40.294;-3.754;2023-10-19T11:02:44;92122.84;;;16.21;100.00
19783;BME280;10051;40.294;-3.754;2023-10-19T11:05:20;92148.09;;;16.45;100.00
19783;BME280;10051;40.294;-3.754;2023-10-19T11:08:12;92156.53;;;16.58;100.00
19783;BME280;10051;40.294;-3.754;2023-10-19T11:10:47;92128.50;;;16.57;100.00
19783;BME280;10051;40.294;-3.754;2023-10-19T11:13:17;92147.72;;;16.88;100.00
19783;BME280;10051;40.294;-3.754;2023-10-19T11:15:51;92140.19;;;16.94;100.00
19783;BME280;10051;40.294;-3.754;2023-10-19T11:18:48;92111.41;;;16.96;100.00
19783;BME280;10051;40.294;-3.754;2023-10-19T11:21:15;92095.53;;;17.00;100.00
19783;BME280;10051;40.294;-3.754;2023-10-19T11:26:12;92038.53;;;16.90;100.00
19783;BME280;10051;40.294;-3.754;2023-10-19T11:28:39;92075.88;;;17.12;100.00
19783;BME280;10051;40.294;-3.754;2023-10-19T11:31:17;92056.13;;;17.09;100.00
19783;BME280;10051;40.294;-3.754;2023-10-19T11:33:45;92059.97;;;17.19;100.00
19783;BME280;10051;40.294;-3.754;2023-10-19T11:36:11;92053.84;;;17.11;100.00
19783;BME280;10051;40.294;-3.754;2023-10-19T11:38:44;92045.19;;;17.18;100.00
19783;BME280;10051;40.294;-3.754;2023-10-19T11:41:15;92035.69;;;17.20;100.00
19783;BME280;10051;40.294;-3.754;2023-10-19T11:43:42;92031.91;;;17.21;100.00
19783;BME280;10051;40.294;-3.754;2023-10-19T11:46:11;92019.00;;;17.16;100.00
19783;BME280;10051;40.294;-3.754;2023-10-19T11:48:38;92012.50;;;17.10;100.00
19783;BME280;10051;40.294;-3.754;2023-10-19T11:51:05;92031.91;;;17.18;100.00
19783;BME280;10051;40.294;-3.754;2023-10-19T11:53:35;92022.47;;;17.28;100.00
19783;BME280;10051;40.294;-3.754;2023-10-19T11:56:11;92004.63;;;17.28;100.00
19783;BME280;10051;40.294;-3.754;2023-10-19T11:58:42;91973.44;;;17.07;100.00
19783;BME280;10051;40.294;-3.754;2023-10-19T12:01:08;91971.97;;;17.24;100.00
19783;BME280;10051;40.294;-3.754;2023-10-19T12:03:40;91963.66;;;17.26;100.00
19783;BME280;10051;40.294;-3.754;2023-10-19T12:06:07;91939.72;;;17.18;100.00
19783;BME280;10051;40.294;-3.754;2023-10-19T12:08:33;91945.44;;;17.24;100.00
19783;BME280;10051;40.294;-3.754;2023-10-19T12:10:59;91942.06;;;17.38;100.00
19783;BME280;10051;40.294;-3.754;2023-10-19T12:13:30;91893.44;;;17.12;100.00
19783;BME280;10051;40.294;-3.754;2023-10-19T12:15:57;91914.75;;;17.34;100.00
19783;BME280;10051;40.294;-3.754;2023-10-19T12:18:24;91920.47;;;17.43;100.00
19783;BME280;10051;40.294;-3.754;2023-10-19T12:20:53;91925.41;;;17.41;100.00
19783;BME280;10051;40.294;-3.754;2023-10-19T12:23:22;91937.53;;;17.42;100.00
19783;BME280;10051;40.294;-3.754;2023-10-19T12:25:48;91933.00;;;17.50;100.00
19783;BME280;10051;40.294;-3.754;2023-10-19T12:28:14;91925.00;;;17.46;100.00
19783;BME280;10051;40.294;-3.754;2023-10-19T12:30:41;91912.88;;;17.38;100.00
19783;BME280;10051;40.294;-3.754;2023-10-19T12:33:06;91895.03;;;17.35;100.00
19783;BME280;10051;40.294;-3.754;2023-10-19T12:35:41;91895.41;;;17.44;100.00
19783;BME280;10051;40.294;-3.754;2023-10-19T12:38:13;91899.97;;;17.40;100.00
19783;BME280;10051;40.294;-3.754;2023-10-19T12:40:43;91882.88;;;17.34;100.00
19783;BME280;10051;40.294;-3.754;2023-10-19T12:43:09;91887.81;;;17.43;100.00
19783;BME280;10051;40.294;-3.754;2023-10-19T12:45:36;91873.78;;;17.42;100.00
19783;BME280;10051;40.294;-3.754;2023-10-19T12:48:04;91870.00;;;17.43;100.00
19783;BME280;10051;40.294;-3.754;2023-10-19T12:50:31;91858.22;;;17.44;100.00
19783;BME280;10051;40.294;-3.754;2023-10-19T12:52:57;91855.59;;;17.48;100.00
19783;BME280;10051;40.294;-3.754;2023-10-19T12:55:23;91843.06;;;17.56;100.00
19783;BME280;10051;40.294;-3.754;2023-10-19T12:57:55;91828.25;;;17.47;100.00
19783;BME280;10051;40.294;-3.754;2023-10-19T13:00:22;91810.06;;;17.53;100.00
19783;BME280;10051;40.294;-3.754;2023-10-19T13:02:52;91815.38;;;17.53;100.00
19783;BME280;10051;40.294;-3.754;2023-10-19T13:05:42;91747.44;;;17.48;100.00
19783;BME280;10051;40.294;-3.754;2023-10-19T13:08:13;91765.63;;;17.46;100.00
19783;BME280;10051;40.294;-3.754;2023-10-19T13:10:40;91770.19;;;17.49;100.00
19783;BME280;10051;40.294;-3.754;2023-10-19T13:13:09;91746.69;;;17.33;100.00
19783;BME280;10051;40.294;-3.754;2023-10-19T13:15:43;91763.00;;;17.39;100.00
19783;BME280;10051;40.294;-3.754;2023-10-19T13:18:11;91766.41;;;17.50;100.00